sensor_id;sensor_type;location;lat;lon;timestamp;temperature;humidity
20070;DHT22;10195;50.868;4.382;2023-12-22T00:01:20;10.90;99.90
20070;DHT22;10195;50.868;4.382;2023-12-22T00:03:46;10.80;99.90
20070;DHT22;10195;50.868;4.382;2023-12-22T00:06:12;10.80;99.90
20070;DHT22;10195;50.868;4.382;2023-12-22T00:08:38;10.70;99.90
20070;DHT22;10195;50.868;4.382;2023-12-22T00:11:04;10.70;99.90
20070;DHT22;10195;50.868;4.382;2023-12-22T00:13:30;10.70;99.90
20070;DHT22;10195;50.868;4.382;2023-12-22T00:15:58;10.70;99.90
20070;DHT22;10195;50.868;4.382;2023-12-22T00:18:23;10.70;99.90
20070;DHT22;10195;50.868;4.382;2023-12-22T00:20:49;10.70;99.90
20070;DHT22;10195;50.868;4.382;2023-12-22T00:23:14;10.70;99.90
20070;DHT22;10195;50.868;4.382;2023-12-22T00:25:40;10.70;99.90
20070;DHT22;10195;50.868;4.382;2023-12-22T00:28:06;10.70;99.90
20070;DHT22;10195;50.868;4.382;2023-12-22T00:30:31;10.70;99.90
20070;DHT22;10195;50.868;4.382;2023-12-22T00:32:57;10.60;99.90
20070;DHT22;10195;50.868;4.382;2023-12-22T00:35:23;10.60;99.90
20070;DHT22;10195;50.868;4.382;2023-12-22T00:37:48;10.40;99.90
20070;DHT22;10195;50.868;4.382;2023-12-22T00:40:14;10.30;99.90
20070;DHT22;10195;50.868;4.382;2023-12-22T00:42:40;10.20;99.90
20070;DHT22;10195;50.868;4.382;2023-12-22T00:45:06;10.20;99.90
20070;DHT22;10195;50.868;4.382;2023-12-22T00:47:31;10.00;99.90
20070;DHT22;10195;50.868;4.382;2023-12-22T00:50:00;10.00;99.90
20070;DHT22;10195;50.868;4.382;2023-12-22T00:52:26;9.90;99.90
20070;DHT22;10195;50.868;4.382;2023-12-22T00:54:52;9.90;99.90
20070;DHT22;10195;50.868;4.382;2023-12-22T00:57:17;9.90;99.90
20070;DHT22;10195;50.868;4.382;2023-12-22T00:59:43;9.80;99.90
20070;DHT22;10195;50.868;4.382;2023-12-22T01:02:13;9.90;99.90
20070;DHT22;10195;50.868;4.382;2023-12-22T01:04:39;9.80;99.90
20070;DHT22;10195;50.868;4.382;2023-12-22T01:07:07;9.80;99.90
20070;DHT22;10195;50.868;4.382;2023-12-22T01:09:33;9.90;99.90
20070;DHT22;10195;50.868;4.382;2023-12-22T01:11:59;9.90;99.90
20070;DHT22;10195;50.868;4.382;2023-12-22T01:14:28;9.90;99.90
20070;DHT22;10195;50.868;4.382;2023-12-22T01:16:53;9.90;99.90
20070;DHT22;10195;50.868;4.382;2023-12-22T01:19:19;10.00;99.90
20070;DHT22;10195;50.868;4.382;2023-12-22T01:21:45;10.00;99.90
20070;DHT22;10195;50.868;4.382;2023-12-22T01:24:10;10.00;99.90
20070;DHT22;10195;50.868;4.382;2023-12-22T01:26:36;10.10;99.90
20070;DHT22;10195;50.868;4.382;2023-12-22T01:29:01;10.10;99.90
20070;DHT22;10195;50.868;4.382;2023-12-22T01:31:27;10.10;99.90
20070;DHT22;10195;50.868;4.382;2023-12-22T01:33:53;10.10;99.90
20070;DHT22;10195;50.868;4.382;2023-12-22T01:36:18;10.10;99.90
20070;DHT22;10195;50.868;4.382;2023-12-22T01:38:44;10.10;99.90
20070;DHT22;10195;50.868;4.382;2023-12-22T01:41:09;10.20;99.90
20070;DHT22;10195;50.868;4.382;2023-12-22T01:43:35;10.20;99.90
20070;DHT22;10195;50.868;4.382;2023-12-22T01:46:01;10.20;99.90
20070;DHT22;10195;50.868;4.382;2023-12-22T01:48:28;10.20;99.90
20070;DHT22;10195;50.868;4.382;2023-12-22T01:50:55;10.20;99.90
20070;DHT22;10195;50.868;4.382;2023-12-22T01:53:22;10.20;99.90
20070;DHT22;10195;50.868;4.382;2023-12-22T01:55:50;10.30;99.90
20070;DHT22;10195;50.868;4.382;2023-12-22T01:58:17;10.30;99.90
20070;DHT22;10195;50.868;4.382;2023-12-22T02:00:43;10.30;99.90
20070;DHT22;10195;50.868;4.382;2023-12-22T02:03:09;10.30;99.90
20070;DHT22;10195;50.868;4.382;2023-12-22T02:05:35;10.30;99.90
20070;DHT22;10195;50.868;4.382;2023-12-22T02:08:01;10.30;99.90
20070;DHT22;10195;50.868;4.382;2023-12-22T02:10:27;10.20;99.90
20070;DHT22;10195;50.868;4.382;2023-12-22T02:12:53;10.20;99.90
20070;DHT22;10195;50.868;4.382;2023-12-22T02:15:18;10.20;99.90
20070;DHT22;10195;50.868;4.382;2023-12-22T02:20:13;10.10;99.90
20070;DHT22;10195;50.868;4.382;2023-12-22T02:22:38;10.10;99.90
20070;DHT22;10195;50.868;4.382;2023-12-22T02:25:04;10.10;99.90
20070;DHT22;10195;50.868;4.382;2023-12-22T02:33:08;10.20;99.90
20070;DHT22;10195;50.868;4.382;2023-12-22T02:35:37;10.10;99.90
20070;DHT22;10195;50.868;4.382;2023-12-22T02:38:04;10.10;99.90
20070;DHT22;10195;50.868;4.382;2023-12-22T02:40:31;10.20;99.90
20070;DHT22;10195;50.868;4.382;2023-12-22T02:42:58;10.20;99.90
20070;DHT22;10195;50.868;4.382;2023-12-22T02:45:23;10.20;99.90
20070;DHT22;10195;50.868;4.382;2023-12-22T02:47:49;10.30;99.90
20070;DHT22;10195;50.868;4.382;2023-12-22T02:50:16;10.20;99.90
20070;DHT22;10195;50.868;4.382;2023-12-22T02:52:42;10.20;99.90
20070;DHT22;10195;50.868;4.382;2023-12-22T02:55:08;10.20;99.90
20070;DHT22;10195;50.868;4.382;2023-12-22T02:57:34;10.20;99.90
20070;DHT22;10195;50.868;4.382;2023-12-22T02:59:59;10.20;99.90
20070;DHT22;10195;50.868;4.382;2023-12-22T03:02:25;10.10;99.90
20070;DHT22;10195;50.868;4.382;2023-12-22T03:04:51;10.10;99.90
20070;DHT22;10195;50.868;4.382;2023-12-22T03:07:17;10.10;99.90
20070;DHT22;10195;50.868;4.382;2023-12-22T03:09:43;10.00;99.90
20070;DHT22;10195;50.868;4.382;2023-12-22T03:12:09;10.00;99.90
20070;DHT22;10195;50.868;4.382;2023-12-22T03:14:36;10.00;99.90
20070;DHT22;10195;50.868;4.382;2023-12-22T03:17:03;10.00;99.90
20070;DHT22;10195;50.868;4.382;2023-12-22T03:19:29;10.00;99.90
20070;DHT22;10195;50.868;4.382;2023-12-22T03:21:55;10.00;99.90
20070;DHT22;10195;50.868;4.382;2023-12-22T03:24:22;10.00;99.90
20070;DHT22;10195;50.868;4.382;2023-12-22T03:26:49;10.00;99.90
20070;DHT22;10195;50.868;4.382;2023-12-22T03:29:15;10.00;99.90
20070;DHT22;10195;50.868;4.382;2023-12-22T03:31:40;9.90;99.90
20070;DHT22;10195;50.868;4.382;2023-12-22T03:34:06;10.00;99.90
20070;DHT22;10195;50.868;4.382;2023-12-22T03:36:32;9.90;99.90
20070;DHT22;10195;50.868;4.382;2023-12-22T03:38:58;9.80;99.90
20070;DHT22;10195;50.868;4.382;2023-12-22T03:41:24;9.80;99.90
20070;DHT22;10195;50.868;4.382;2023-12-22T03:43:49;9.70;99.90
20070;DHT22;10195;50.868;4.382;2023-12-22T03:46:15;9.80;99.90
20070;DHT22;10195;50.868;4.382;2023-12-22T03:48:41;9.80;99.90
20070;DHT22;10195;50.868;4.382;2023-12-22T03:51:07;9.70;99.90
20070;DHT22;10195;50.868;4.382;2023-12-22T03:53:32;9.70;99.90
20070;DHT22;10195;50.868;4.382;2023-12-22T03:55:58;9.70;99.90
20070;DHT22;10195;50.868;4.382;2023-12-22T03:58:24;9.70;99.90
20070;DHT22;10195;50.868;4.382;2023-12-22T04:00:51;9.70;99.90
20070;DHT22;10195;50.868;4.382;2023-12-22T04:03:17;9.70;99.90
20070;DHT22;10195;50.868;4.382;2023-12-22T04:05:43;9.70;99.90
20070;DHT22;10195;50.868;4.382;2023-12-22T04:08:08;9.60;99.90
20070;DHT22;10195;50.868;4.382;2023-12-22T04:10:34;9.50;99.90
20070;DHT22;10195;50.868;4.382;2023-12-22T04:13:00;9.50;99.90
20070;DHT22;10195;50.868;4.382;2023-12-22T04:15:25;9.40;99.90
20070;DHT22;10195;50.868;4.382;2023-12-22T04:17:51;9.40;99.90
20070;DHT22;10195;50.868;4.382;2023-12-22T04:20:17;9.40;99.90
20070;DHT22;10195;50.868;4.382;2023-12-22T04:22:42;9.40;99.90
20070;DHT22;10195;50.868;4.382;2023-12-22T04:25:08;9.30;99.90
20070;DHT22;10195;50.868;4.382;2023-12-22T04:27:37;9.30;99.90
20070;DHT22;10195;50.868;4.382;2023-12-22T04:30:03;9.30;99.90
20070;DHT22;10195;50.868;4.382;2023-12-22T04:32:28;9.30;99.90
20070;DHT22;10195;50.868;4.382;2023-12-22T04:34:54;9.30;99.90
20070;DHT22;10195;50.868;4.382;2023-12-22T04:37:20;9.20;99.90
20070;DHT22;10195;50.868;4.382;2023-12-22T04:39:45;9.20;99.90
20070;DHT22;10195;50.868;4.382;2023-12-22T04:42:11;9.20;99.90
20070;DHT22;10195;50.868;4.382;2023-12-22T04:44:37;9.20;99.90
20070;DHT22;10195;50.868;4.382;2023-12-22T04:47:03;9.20;99.90
20070;DHT22;10195;50.868;4.382;2023-12-22T04:49:28;9.10;99.90
20070;DHT22;10195;50.868;4.382;2023-12-22T04:51:54;9.10;99.90
20070;DHT22;10195;50.868;4.382;2023-12-22T04:54:20;9.10;99.90
20070;DHT22;10195;50.868;4.382;2023-12-22T04:56:45;9.00;99.90
20070;DHT22;10195;50.868;4.382;2023-12-22T04:59:11;9.10;99.90
20070;DHT22;10195;50.868;4.382;2023-12-22T05:01:37;9.10;99.90
20070;DHT22;10195;50.868;4.382;2023-12-22T05:04:02;9.20;99.90
20070;DHT22;10195;50.868;4.382;2023-12-22T05:06:28;9.20;99.90
20070;DHT22;10195;50.868;4.382;2023-12-22T05:08:57;9.10;99.90
20070;DHT22;10195;50.868;4.382;2023-12-22T05:11:25;9.20;99.90
20070;DHT22;10195;50.868;4.382;2023-12-22T05:13:51;9.20;99.90
20070;DHT22;10195;50.868;4.382;2023-12-22T05:16:16;9.30;99.90
20070;DHT22;10195;50.868;4.382;2023-12-22T05:18:42;9.40;99.90
20070;DHT22;10195;50.868;4.382;2023-12-22T05:21:08;9.40;99.90
20070;DHT22;10195;50.868;4.382;2023-12-22T05:23:36;9.50;99.90
20070;DHT22;10195;50.868;4.382;2023-12-22T05:26:02;9.50;99.90
20070;DHT22;10195;50.868;4.382;2023-12-22T05:28:29;9.50;99.90
20070;DHT22;10195;50.868;4.382;2023-12-22T05:30:54;9.60;99.90
20070;DHT22;10195;50.868;4.382;2023-12-22T05:33:20;9.70;99.90
20070;DHT22;10195;50.868;4.382;2023-12-22T05:35:46;9.70;99.90
20070;DHT22;10195;50.868;4.382;2023-12-22T05:38:11;9.80;99.90
20070;DHT22;10195;50.868;4.382;2023-12-22T05:40:37;9.90;99.90
20070;DHT22;10195;50.868;4.382;2023-12-22T05:43:02;9.90;99.90
20070;DHT22;10195;50.868;4.382;2023-12-22T05:45:28;10.00;99.90
20070;DHT22;10195;50.868;4.382;2023-12-22T05:47:54;10.00;99.90
20070;DHT22;10195;50.868;4.382;2023-12-22T05:50:19;10.00;99.90
20070;DHT22;10195;50.868;4.382;2023-12-22T05:52:45;10.10;99.90
20070;DHT22;10195;50.868;4.382;2023-12-22T05:55:11;10.10;99.90
20070;DHT22;10195;50.868;4.382;2023-12-22T05:57:36;10.10;99.90
20070;DHT22;10195;50.868;4.382;2023-12-22T06:00:06;10.20;99.90
20070;DHT22;10195;50.868;4.382;2023-12-22T06:02:33;10.20;99.90
20070;DHT22;10195;50.868;4.382;2023-12-22T06:04:59;10.10;99.90
20070;DHT22;10195;50.868;4.382;2023-12-22T06:07:25;10.10;99.90
20070;DHT22;10195;50.868;4.382;2023-12-22T06:09:51;10.10;99.90
20070;DHT22;10195;50.868;4.382;2023-12-22T06:12:16;10.10;99.90
20070;DHT22;10195;50.868;4.382;2023-12-22T06:14:42;10.10;99.90
20070;DHT22;10195;50.868;4.382;2023-12-22T06:17:08;10.10;99.90
20070;DHT22;10195;50.868;4.382;2023-12-22T06:19:35;10.10;99.90
20070;DHT22;10195;50.868;4.382;2023-12-22T06:22:01;10.20;99.90
20070;DHT22;10195;50.868;4.382;2023-12-22T06:24:27;10.20;99.90
20070;DHT22;10195;50.868;4.382;2023-12-22T06:26:53;10.20;99.90
20070;DHT22;10195;50.868;4.382;2023-12-22T06:29:18;10.10;99.90
20070;DHT22;10195;50.868;4.382;2023-12-22T06:31:44;10.10;99.90
20070;DHT22;10195;50.868;4.382;2023-12-22T06:34:09;10.10;99.90
20070;DHT22;10195;50.868;4.382;2023-12-22T06:36:35;10.10;99.90
20070;DHT22;10195;50.868;4.382;2023-12-22T06:39:01;10.10;99.90
20070;DHT22;10195;50.868;4.382;2023-12-22T06:41:28;10.20;99.90
20070;DHT22;10195;50.868;4.382;2023-12-22T06:43:55;10.20;99.90
20070;DHT22;10195;50.868;4.382;2023-12-22T06:46:23;10.20;99.90
20070;DHT22;10195;50.868;4.382;2023-12-22T06:48:51;10.10;99.90
20070;DHT22;10195;50.868;4.382;2023-12-22T06:51:18;10.00;99.90
20070;DHT22;10195;50.868;4.382;2023-12-22T06:53:45;10.00;99.90
20070;DHT22;10195;50.868;4.382;2023-12-22T06:56:21;10.10;99.90
20070;DHT22;10195;50.868;4.382;2023-12-22T06:58:48;10.10;99.90
20070;DHT22;10195;50.868;4.382;2023-12-22T07:01:22;10.10;99.90
20070;DHT22;10195;50.868;4.382;2023-12-22T07:03:48;10.10;99.90
20070;DHT22;10195;50.868;4.382;2023-12-22T07:06:18;10.10;99.90
20070;DHT22;10195;50.868;4.382;2023-12-22T07:08:44;10.10;99.90
20070;DHT22;10195;50.868;4.382;2023-12-22T07:11:20;10.10;99.90
20070;DHT22;10195;50.868;4.382;2023-12-22T07:13:45;10.10;99.90
20070;DHT22;10195;50.868;4.382;2023-12-22T07:16:11;10.10;99.90
20070;DHT22;10195;50.868;4.382;2023-12-22T07:18:37;10.10;99.90
20070;DHT22;10195;50.868;4.382;2023-12-22T07:21:03;10.10;99.90
20070;DHT22;10195;50.868;4.382;2023-12-22T07:23:29;10.20;99.90
20070;DHT22;10195;50.868;4.382;2023-12-22T07:25:54;10.20;99.90
20070;DHT22;10195;50.868;4.382;2023-12-22T07:28:20;10.20;99.90
20070;DHT22;10195;50.868;4.382;2023-12-22T07:30:46;10.20;99.90
20070;DHT22;10195;50.868;4.382;2023-12-22T07:33:12;10.30;99.90
20070;DHT22;10195;50.868;4.382;2023-12-22T07:35:37;10.30;99.90
20070;DHT22;10195;50.868;4.382;2023-12-22T07:38:03;10.30;99.90
20070;DHT22;10195;50.868;4.382;2023-12-22T07:40:29;10.30;99.90
20070;DHT22;10195;50.868;4.382;2023-12-22T07:42:57;10.20;99.90
20070;DHT22;10195;50.868;4.382;2023-12-22T07:45:23;10.30;99.90
20070;DHT22;10195;50.868;4.382;2023-12-22T07:47:49;10.30;99.90
20070;DHT22;10195;50.868;4.382;2023-12-22T07:50:15;10.30;99.90
20070;DHT22;10195;50.868;4.382;2023-12-22T07:52:40;10.40;99.90
20070;DHT22;10195;50.868;4.382;2023-12-22T07:55:07;10.40;99.90
20070;DHT22;10195;50.868;4.382;2023-12-22T07:57:37;10.40;99.90
20070;DHT22;10195;50.868;4.382;2023-12-22T08:00:04;10.30;99.90
20070;DHT22;10195;50.868;4.382;2023-12-22T08:02:30;10.30;99.90
20070;DHT22;10195;50.868;4.382;2023-12-22T08:04:56;10.30;99.90
20070;DHT22;10195;50.868;4.382;2023-12-22T08:07:21;10.30;99.90
20070;DHT22;10195;50.868;4.382;2023-12-22T08:09:47;10.30;99.90
20070;DHT22;10195;50.868;4.382;2023-12-22T08:12:13;10.40;99.90
20070;DHT22;10195;50.868;4.382;2023-12-22T08:14:38;10.40;99.90
20070;DHT22;10195;50.868;4.382;2023-12-22T08:17:04;10.40;99.90
20070;DHT22;10195;50.868;4.382;2023-12-22T08:19:29;10.40;99.90
20070;DHT22;10195;50.868;4.382;2023-12-22T08:21:55;10.40;99.90
20070;DHT22;10195;50.868;4.382;2023-12-22T08:24:21;10.40;99.90
20070;DHT22;10195;50.868;4.382;2023-12-22T08:26:47;10.30;99.90
20070;DHT22;10195;50.868;4.382;2023-12-22T08:29:13;10.30;99.90
20070;DHT22;10195;50.868;4.382;2023-12-22T08:31:39;10.20;99.90
20070;DHT22;10195;50.868;4.382;2023-12-22T08:34:04;10.20;99.90
20070;DHT22;10195;50.868;4.382;2023-12-22T08:36:31;10.20;99.90
20070;DHT22;10195;50.868;4.382;2023-12-22T08:38:57;10.10;99.90
20070;DHT22;10195;50.868;4.382;2023-12-22T08:41:23;10.10;99.90
20070;DHT22;10195;50.868;4.382;2023-12-22T08:43:48;10.20;99.90
20070;DHT22;10195;50.868;4.382;2023-12-22T08:46:14;10.20;99.90
20070;DHT22;10195;50.868;4.382;2023-12-22T08:48:40;10.20;99.90
20070;DHT22;10195;50.868;4.382;2023-12-22T08:51:06;10.20;99.90
20070;DHT22;10195;50.868;4.382;2023-12-22T08:53:33;10.20;99.90
20070;DHT22;10195;50.868;4.382;2023-12-22T08:56:01;10.30;99.90
20070;DHT22;10195;50.868;4.382;2023-12-22T08:58:27;10.30;99.90
20070;DHT22;10195;50.868;4.382;2023-12-22T09:00:53;10.40;99.90
20070;DHT22;10195;50.868;4.382;2023-12-22T09:03:19;10.40;99.90
20070;DHT22;10195;50.868;4.382;2023-12-22T09:05:44;10.50;99.90
20070;DHT22;10195;50.868;4.382;2023-12-22T09:08:10;10.50;99.90
20070;DHT22;10195;50.868;4.382;2023-12-22T09:10:36;10.60;99.90
20070;DHT22;10195;50.868;4.382;2023-12-22T09:13:01;10.60;99.90
20070;DHT22;10195;50.868;4.382;2023-12-22T09:15:27;10.60;99.90
20070;DHT22;10195;50.868;4.382;2023-12-22T09:17:53;10.70;99.90
20070;DHT22;10195;50.868;4.382;2023-12-22T09:20:24;10.70;99.90
20070;DHT22;10195;50.868;4.382;2023-12-22T09:22:49;10.70;99.90
20070;DHT22;10195;50.868;4.382;2023-12-22T09:25:15;10.60;99.90
20070;DHT22;10195;50.868;4.382;2023-12-22T09:27:41;10.70;99.90
20070;DHT22;10195;50.868;4.382;2023-12-22T09:30:07;10.70;99.90
20070;DHT22;10195;50.868;4.382;2023-12-22T09:32:33;10.70;99.90
20070;DHT22;10195;50.868;4.382;2023-12-22T09:35:00;10.80;99.90
20070;DHT22;10195;50.868;4.382;2023-12-22T09:37:26;10.80;99.90
20070;DHT22;10195;50.868;4.382;2023-12-22T09:39:52;10.80;99.90
20070;DHT22;10195;50.868;4.382;2023-12-22T09:42:20;10.80;99.90
20070;DHT22;10195;50.868;4.382;2023-12-22T09:44:49;10.90;99.90
20070;DHT22;10195;50.868;4.382;2023-12-22T09:47:16;10.90;99.90
20070;DHT22;10195;50.868;4.382;2023-12-22T09:49:43;11.00;99.90
20070;DHT22;10195;50.868;4.382;2023-12-22T09:52:10;11.00;99.90
20070;DHT22;10195;50.868;4.382;2023-12-22T09:54:37;11.00;99.90
20070;DHT22;10195;50.868;4.382;2023-12-22T09:57:04;11.00;99.90
20070;DHT22;10195;50.868;4.382;2023-12-22T09:59:30;11.10;99.90
20070;DHT22;10195;50.868;4.382;2023-12-22T10:01:57;11.10;99.90
20070;DHT22;10195;50.868;4.382;2023-12-22T10:04:25;11.10;99.90
20070;DHT22;10195;50.868;4.382;2023-12-22T10:06:51;11.10;99.90
20070;DHT22;10195;50.868;4.382;2023-12-22T10:09:19;11.10;99.90
20070;DHT22;10195;50.868;4.382;2023-12-22T10:11:47;11.20;99.90
20070;DHT22;10195;50.868;4.382;2023-12-22T10:14:15;11.20;99.90
20070;DHT22;10195;50.868;4.382;2023-12-22T10:16:51;11.20;99.90
20070;DHT22;10195;50.868;4.382;2023-12-22T10:19:17;11.20;99.90
20070;DHT22;10195;50.868;4.382;2023-12-22T10:21:43;11.20;99.90
20070;DHT22;10195;50.868;4.382;2023-12-22T10:24:41;11.20;99.90
20070;DHT22;10195;50.868;4.382;2023-12-22T10:27:08;11.30;99.90
20070;DHT22;10195;50.868;4.382;2023-12-22T10:29:34;11.30;99.90
20070;DHT22;10195;50.868;4.382;2023-12-22T10:32:04;11.30;99.90
20070;DHT22;10195;50.868;4.382;2023-12-22T10:34:33;11.30;99.90
20070;DHT22;10195;50.868;4.382;2023-12-22T10:36:59;11.30;99.90
20070;DHT22;10195;50.868;4.382;2023-12-22T10:39:29;11.30;99.90
20070;DHT22;10195;50.868;4.382;2023-12-22T10:41:56;11.30;99.90
20070;DHT22;10195;50.868;4.382;2023-12-22T10:44:26;11.30;99.90
20070;DHT22;10195;50.868;4.382;2023-12-22T10:46:52;11.10;99.90
20070;DHT22;10195;50.868;4.382;2023-12-22T10:49:20;11.00;99.90
20070;DHT22;10195;50.868;4.382;2023-12-22T10:51:46;11.00;99.90
20070;DHT22;10195;50.868;4.382;2023-12-22T10:54:12;11.00;99.90
20070;DHT22;10195;50.868;4.382;2023-12-22T10:56:39;11.00;99.90
20070;DHT22;10195;50.868;4.382;2023-12-22T10:59:05;11.00;99.90
20070;DHT22;10195;50.868;4.382;2023-12-22T11:01:32;11.10;99.90
20070;DHT22;10195;50.868;4.382;2023-12-22T11:04:03;11.00;99.90
20070;DHT22;10195;50.868;4.382;2023-12-22T11:06:36;11.10;99.90
20070;DHT22;10195;50.868;4.382;2023-12-22T11:09:08;11.10;99.90
20070;DHT22;10195;50.868;4.382;2023-12-22T11:11:39;11.00;99.90
20070;DHT22;10195;50.868;4.382;2023-12-22T11:14:06;11.00;99.90
20070;DHT22;10195;50.868;4.382;2023-12-22T11:16:34;11.00;99.90
20070;DHT22;10195;50.868;4.382;2023-12-22T11:19:02;11.10;99.90
20070;DHT22;10195;50.868;4.382;2023-12-22T11:21:29;11.00;99.90
20070;DHT22;10195;50.868;4.382;2023-12-22T11:23:55;11.10;99.90
20070;DHT22;10195;50.868;4.382;2023-12-22T11:26:23;11.20;99.90
20070;DHT22;10195;50.868;4.382;2023-12-22T11:28:50;11.20;99.90
20070;DHT22;10195;50.868;4.382;2023-12-22T11:31:17;11.20;99.90
20070;DHT22;10195;50.868;4.382;2023-12-22T11:33:45;11.20;99.90
20070;DHT22;10195;50.868;4.382;2023-12-22T11:36:12;11.10;99.90
20070;DHT22;10195;50.868;4.382;2023-12-22T11:38:40;11.10;99.90
20070;DHT22;10195;50.868;4.382;2023-12-22T11:41:07;11.20;99.90
20070;DHT22;10195;50.868;4.382;2023-12-22T11:43:36;11.20;99.90
20070;DHT22;10195;50.868;4.382;2023-12-22T11:46:03;11.20;99.90
20070;DHT22;10195;50.868;4.382;2023-12-22T11:48:29;11.20;99.90
20070;DHT22;10195;50.868;4.382;2023-12-22T11:50:55;11.30;99.90
20070;DHT22;10195;50.868;4.382;2023-12-22T11:53:25;11.30;99.90
20070;DHT22;10195;50.868;4.382;2023-12-22T11:56:02;11.40;99.90
20070;DHT22;10195;50.868;4.382;2023-12-22T11:58:37;11.50;99.90
20070;DHT22;10195;50.868;4.382;2023-12-22T12:03:57;11.40;99.90
20070;DHT22;10195;50.868;4.382;2023-12-22T12:08:57;11.40;99.90
20070;DHT22;10195;50.868;4.382;2023-12-22T12:11:23;11.40;99.90
20070;DHT22;10195;50.868;4.382;2023-12-22T12:13:50;11.40;99.90
20070;DHT22;10195;50.868;4.382;2023-12-22T12:16:20;11.40;99.90
20070;DHT22;10195;50.868;4.382;2023-12-22T12:18:51;11.40;99.90
20070;DHT22;10195;50.868;4.382;2023-12-22T12:21:19;11.60;99.90
20070;DHT22;10195;50.868;4.382;2023-12-22T12:23:45;11.60;99.90
20070;DHT22;10195;50.868;4.382;2023-12-22T12:26:13;11.60;99.90
20070;DHT22;10195;50.868;4.382;2023-12-22T12:28:44;11.60;99.90
20070;DHT22;10195;50.868;4.382;2023-12-22T12:31:11;11.60;99.90
20070;DHT22;10195;50.868;4.382;2023-12-22T12:33:36;11.60;99.90
20070;DHT22;10195;50.868;4.382;2023-12-22T12:36:03;11.60;99.90
20070;DHT22;10195;50.868;4.382;2023-12-22T12:38:53;11.60;99.90
20070;DHT22;10195;50.868;4.382;2023-12-22T12:41:30;11.60;99.90
20070;DHT22;10195;50.868;4.382;2023-12-22T12:43:58;11.60;99.90
20070;DHT22;10195;50.868;4.382;2023-12-22T12:46:34;11.60;99.90
20070;DHT22;10195;50.868;4.382;2023-12-22T12:49:18;11.60;99.90
20070;DHT22;10195;50.868;4.382;2023-12-22T12:51:48;11.70;99.90
20070;DHT22;10195;50.868;4.382;2023-12-22T12:54:14;11.60;99.90
20070;DHT22;10195;50.868;4.382;2023-12-22T12:56:42;11.60;99.90
20070;DHT22;10195;50.868;4.382;2023-12-22T12:59:09;11.50;99.90
20070;DHT22;10195;50.868;4.382;2023-12-22T13:01:44;11.50;99.90
20070;DHT22;10195;50.868;4.382;2023-12-22T13:04:11;11.50;99.90
20070;DHT22;10195;50.868;4.382;2023-12-22T13:06:50;11.60;99.90
20070;DHT22;10195;50.868;4.382;2023-12-22T13:09:16;11.50;99.90
20070;DHT22;10195;50.868;4.382;2023-12-22T13:11:44;11.50;99.90
20070;DHT22;10195;50.868;4.382;2023-12-22T13:14:23;11.50;99.90
20070;DHT22;10195;50.868;4.382;2023-12-22T13:16:51;11.50;99.90
20070;DHT22;10195;50.868;4.382;2023-12-22T13:19:17;11.50;99.90
20070;DHT22;10195;50.868;4.382;2023-12-22T13:21:42;11.50;99.90
20070;DHT22;10195;50.868;4.382;2023-12-22T13:24:11;11.60;99.90
20070;DHT22;10195;50.868;4.382;2023-12-22T13:26:38;11.60;99.90
20070;DHT22;10195;50.868;4.382;2023-12-22T13:29:07;11.60;99.90
20070;DHT22;10195;50.868;4.382;2023-12-22T13:31:36;11.60;99.90
20070;DHT22;10195;50.868;4.382;2023-12-22T13:34:02;11.60;99.90
20070;DHT22;10195;50.868;4.382;2023-12-22T13:36:28;11.60;99.90
20070;DHT22;10195;50.868;4.382;2023-12-22T13:38:58;11.70;99.90
20070;DHT22;10195;50.868;4.382;2023-12-22T13:41:24;11.60;99.90
20070;DHT22;10195;50.868;4.382;2023-12-22T13:43:50;11.70;99.90
20070;DHT22;10195;50.868;4.382;2023-12-22T13:46:16;11.60;99.90
20070;DHT22;10195;50.868;4.382;2023-12-22T13:48:41;11.60;99.90
20070;DHT22;10195;50.868;4.382;2023-12-22T13:51:07;11.70;99.90
20070;DHT22;10195;50.868;4.382;2023-12-22T13:53:33;11.70;99.90
20070;DHT22;10195;50.868;4.382;2023-12-22T13:56:00;11.70;99.90
20070;DHT22;10195;50.868;4.382;2023-12-22T13:58:26;11.70;99.90
20070;DHT22;10195;50.868;4.382;2023-12-22T14:00:53;11.70;99.90
20070;DHT22;10195;50.868;4.382;2023-12-22T14:03:19;11.60;99.90
20070;DHT22;10195;50.868;4.382;2023-12-22T14:05:52;11.60;99.90
20070;DHT22;10195;50.868;4.382;2023-12-22T14:08:18;11.60;99.90
20070;DHT22;10195;50.868;4.382;2023-12-22T14:10:53;11.60;99.90
20070;DHT22;10195;50.868;4.382;2023-12-22T14:13:19;11.60;99.90
20070;DHT22;10195;50.868;4.382;2023-12-22T14:15:44;11.70;99.90
20070;DHT22;10195;50.868;4.382;2023-12-22T14:18:11;11.60;99.90
20070;DHT22;10195;50.868;4.382;2023-12-22T14:20:37;11.70;99.90
20070;DHT22;10195;50.868;4.382;2023-12-22T14:23:02;11.70;99.90
20070;DHT22;10195;50.868;4.382;2023-12-22T14:25:29;11.60;99.90
20070;DHT22;10195;50.868;4.382;2023-12-22T14:27:56;11.60;99.90
20070;DHT22;10195;50.868;4.382;2023-12-22T14:30:23;11.60;99.90
20070;DHT22;10195;50.868;4.382;2023-12-22T14:32:49;11.60;99.90
20070;DHT22;10195;50.868;4.382;2023-12-22T14:35:14;11.60;99.90
20070;DHT22;10195;50.868;4.382;2023-12-22T14:37:40;11.70;99.90
20070;DHT22;10195;50.868;4.382;2023-12-22T14:40:06;11.70;99.90
20070;DHT22;10195;50.868;4.382;2023-12-22T14:42:32;11.70;99.90
20070;DHT22;10195;50.868;4.382;2023-12-22T14:44:58;11.70;99.90
20070;DHT22;10195;50.868;4.382;2023-12-22T14:47:23;11.80;99.90
20070;DHT22;10195;50.868;4.382;2023-12-22T14:49:49;11.80;99.90
20070;DHT22;10195;50.868;4.382;2023-12-22T14:52:15;11.80;99.90
20070;DHT22;10195;50.868;4.382;2023-12-22T14:54:40;11.80;99.90
20070;DHT22;10195;50.868;4.382;2023-12-22T14:57:06;11.70;99.90
20070;DHT22;10195;50.868;4.382;2023-12-22T14:59:32;11.70;99.90
20070;DHT22;10195;50.868;4.382;2023-12-22T15:01:57;11.70;99.90
20070;DHT22;10195;50.868;4.382;2023-12-22T15:04:23;11.80;99.90
20070;DHT22;10195;50.868;4.382;2023-12-22T15:06:49;11.80;99.90
20070;DHT22;10195;50.868;4.382;2023-12-22T15:09:15;11.80;99.90
20070;DHT22;10195;50.868;4.382;2023-12-22T15:11:43;11.80;99.90
20070;DHT22;10195;50.868;4.382;2023-12-22T15:14:09;11.90;99.90
20070;DHT22;10195;50.868;4.382;2023-12-22T15:16:40;11.90;99.90
20070;DHT22;10195;50.868;4.382;2023-12-22T15:19:06;11.90;99.90
20070;DHT22;10195;50.868;4.382;2023-12-22T15:21:32;11.90;99.90
20070;DHT22;10195;50.868;4.382;2023-12-22T15:23:57;11.80;99.90
20070;DHT22;10195;50.868;4.382;2023-12-22T15:26:24;11.80;99.90
20070;DHT22;10195;50.868;4.382;2023-12-22T15:28:52;11.80;99.90
20070;DHT22;10195;50.868;4.382;2023-12-22T15:31:18;11.90;99.90
20070;DHT22;10195;50.868;4.382;2023-12-22T15:33:44;11.90;99.90
20070;DHT22;10195;50.868;4.382;2023-12-22T15:36:09;11.90;99.90
20070;DHT22;10195;50.868;4.382;2023-12-22T15:38:35;11.90;99.90
20070;DHT22;10195;50.868;4.382;2023-12-22T15:41:01;11.80;99.90
20070;DHT22;10195;50.868;4.382;2023-12-22T15:43:27;11.90;99.90